createdAt,value
2018-06-02T00:00:37.284Z,0
2018-06-02T00:02:39.009Z,0
2018-06-02T00:04:40.448Z,0
2018-06-02T00:06:41.861Z,0
2018-06-02T00:08:43.286Z,0
2018-06-02T00:10:44.706Z,0
2018-06-02T00:12:46.130Z,0
2018-06-02T00:14:47.607Z,0
2018-06-02T00:16:49.024Z,0
2018-06-02T00:18:50.550Z,0
2018-06-02T00:20:51.971Z,0
2018-06-02T00:22:53.394Z,0
2018-06-02T00:24:54.820Z,0
2018-06-02T00:26:56.391Z,0
2018-06-02T00:28:57.815Z,0
2018-06-02T00:30:59.349Z,0
2018-06-02T00:33:00.801Z,0
2018-06-02T00:35:02.385Z,0
2018-06-02T00:37:04.107Z,0
2018-06-02T00:39:05.626Z,0
2018-06-02T00:41:07.115Z,0
2018-06-02T00:43:08.551Z,0
2018-06-02T00:45:10.256Z,0
2018-06-02T00:47:11.999Z,0
2018-06-02T00:49:13.727Z,0
2018-06-02T00:51:15.461Z,0
2018-06-02T00:53:17.157Z,0
2018-06-02T00:55:18.877Z,0
2018-06-02T00:57:20.428Z,0
2018-06-02T00:59:22.170Z,0
2018-06-02T01:01:23.701Z,0
2018-06-02T01:03:25.233Z,0
2018-06-02T01:05:26.822Z,0
2018-06-02T01:07:28.562Z,0
2018-06-02T01:09:30.349Z,0
2018-06-02T01:11:31.838Z,0
2018-06-02T01:13:33.622Z,0
2018-06-02T01:15:35.354Z,0
2018-06-02T01:17:37.111Z,0
2018-06-02T01:19:38.654Z,0
2018-06-02T01:21:40.137Z,0
2018-06-02T01:23:41.661Z,0
2018-06-02T01:25:43.217Z,0
2018-06-02T01:27:44.703Z,0
2018-06-02T01:29:46.471Z,0
2018-06-02T01:31:47.894Z,0
2018-06-02T01:33:49.647Z,0
2018-06-02T01:35:51.402Z,0
2018-06-02T01:37:53.019Z,0
2018-06-02T01:39:54.523Z,0
2018-06-02T01:41:56.247Z,0
2018-06-02T01:43:57.949Z,0
2018-06-02T01:45:59.740Z,0
2018-06-02T01:48:01.545Z,0
2018-06-02T01:50:03.237Z,0
2018-06-02T01:52:05.027Z,0
2018-06-02T01:54:47.461Z,0
2018-06-02T01:56:48.887Z,0
2018-06-02T01:58:50.366Z,0
2018-06-02T02:00:52.401Z,0
2018-06-02T02:02:54.091Z,0
2018-06-02T02:05:36.729Z,0
2018-06-02T02:07:38.155Z,0
2018-06-02T02:09:40.246Z,0
2018-06-02T02:11:41.716Z,0
2018-06-02T02:14:24.128Z,0
2018-06-02T02:16:25.588Z,0
2018-06-02T02:18:26.996Z,0
2018-06-02T02:20:29.030Z,0
2018-06-02T02:22:30.467Z,0
2018-06-02T02:25:12.888Z,0
2018-06-02T02:27:14.313Z,0
2018-06-02T02:29:16.189Z,0
2018-06-02T02:31:17.686Z,0
2018-06-02T02:33:19.305Z,0
2018-06-02T02:36:02.335Z,0
2018-06-02T02:38:03.737Z,0
2018-06-02T02:40:05.172Z,0
2018-06-02T02:42:06.608Z,0
2018-06-02T02:44:49.321Z,0
2018-06-02T02:46:50.768Z,0
2018-06-02T02:48:52.170Z,0
2018-06-02T02:50:53.594Z,0
2018-06-02T02:52:55.086Z,0
2018-06-02T02:55:37.735Z,0
2018-06-02T02:57:39.589Z,0
2018-06-02T02:59:41.009Z,0
2018-06-02T03:01:43.001Z,0
2018-06-02T03:03:44.520Z,0
2018-06-02T03:05:45.945Z,0
2018-06-02T03:07:47.418Z,0
2018-06-02T03:09:48.844Z,0
2018-06-02T03:11:50.330Z,0
2018-06-02T03:13:51.860Z,0
2018-06-02T03:15:53.289Z,0
2018-06-02T03:17:55.038Z,0
2018-06-02T03:19:56.599Z,0
2018-06-02T03:21:58.336Z,0
2018-06-02T03:23:59.857Z,0
2018-06-02T03:26:01.409Z,0
2018-06-02T03:28:02.863Z,0
2018-06-02T03:30:04.709Z,0
2018-06-02T03:32:06.523Z,0
2018-06-02T03:34:08.347Z,0
2018-06-02T03:36:10.180Z,0
2018-06-02T03:38:11.673Z,0
2018-06-02T03:40:13.191Z,0
2018-06-02T03:42:15.015Z,0
2018-06-02T03:44:16.785Z,0
2018-06-02T03:46:18.603Z,0
2018-06-02T03:48:20.441Z,0
2018-06-02T03:50:22.014Z,0
2018-06-02T03:52:23.803Z,0
2018-06-02T03:54:25.284Z,0
2018-06-02T03:56:26.802Z,0
2018-06-02T03:58:28.341Z,0
2018-06-02T04:00:30.183Z,0
2018-06-02T04:02:31.676Z,0
2018-06-02T04:04:33.167Z,0
2018-06-02T04:06:34.661Z,0
2018-06-02T04:08:36.467Z,0
2018-06-02T04:10:38.030Z,0
2018-06-02T04:12:39.542Z,0
2018-06-02T04:14:41.370Z,0
2018-06-02T04:16:42.895Z,0
2018-06-02T04:18:44.369Z,0
2018-06-02T04:20:45.944Z,5
2018-06-02T04:22:47.749Z,5
2018-06-02T04:24:49.301Z,5
2018-06-02T04:26:51.023Z,5
2018-06-02T04:28:52.530Z,5
2018-06-02T04:30:54.037Z,5
2018-06-02T04:32:55.579Z,5
2018-06-02T04:34:57.039Z,5
2018-06-02T04:36:58.574Z,5
2018-06-02T04:39:00.140Z,5
2018-06-02T04:41:01.886Z,5
2018-06-02T04:43:03.371Z,5
2018-06-02T04:45:04.914Z,5
2018-06-02T04:47:06.429Z,5
2018-06-02T04:49:08.189Z,5
2018-06-02T04:51:10.012Z,5
2018-06-02T04:53:11.752Z,5
2018-06-02T04:55:13.314Z,5
2018-06-02T04:57:14.820Z,5
2018-06-02T04:59:16.322Z,5
2018-06-02T05:01:18.112Z,5
2018-06-02T05:03:19.937Z,5
2018-06-02T05:05:21.716Z,5
2018-06-02T05:07:23.220Z,5
2018-06-02T05:09:24.819Z,5
2018-06-02T05:11:26.351Z,5
2018-06-02T05:13:27.869Z,5
2018-06-02T05:16:10.335Z,5
2018-06-02T05:18:11.773Z,5
2018-06-02T05:20:13.193Z,5
2018-06-02T05:22:14.617Z,0
2018-06-02T05:24:57.030Z,0
2018-06-02T05:26:58.494Z,0
2018-06-02T05:28:59.960Z,0
2018-06-02T05:31:01.382Z,0
2018-06-02T05:33:02.838Z,0
2018-06-02T05:35:04.335Z,0
2018-06-02T05:37:05.779Z,0
2018-06-02T05:39:07.204Z,0
2018-06-02T05:41:08.625Z,0
2018-06-02T05:43:10.050Z,0
2018-06-02T05:45:52.554Z,5
2018-06-02T05:47:53.964Z,5
2018-06-02T05:49:55.393Z,5
2018-06-02T05:51:56.979Z,5
2018-06-02T05:54:39.411Z,5
2018-06-02T05:56:40.821Z,5
2018-06-02T05:58:42.251Z,5
2018-06-02T06:00:43.684Z,5
2018-06-02T06:02:45.104Z,5
2018-06-02T06:04:46.530Z,5
2018-06-02T06:06:48.534Z,5
2018-06-02T06:08:50.060Z,5
2018-06-02T06:10:51.537Z,5
2018-06-02T06:12:53.483Z,5
2018-06-02T06:15:35.938Z,5
2018-06-02T06:17:37.368Z,5
2018-06-02T06:19:38.846Z,5
2018-06-02T06:21:40.210Z,5
2018-06-02T06:24:22.720Z,5
2018-06-02T06:26:24.180Z,5
2018-06-02T06:28:25.606Z,5
2018-06-02T06:30:27.130Z,5
2018-06-02T06:32:28.562Z,5
2018-06-02T06:34:29.986Z,5
2018-06-02T06:36:31.892Z,5
2018-06-02T06:38:33.277Z,5
2018-06-02T06:40:34.709Z,5
2018-06-02T06:42:36.232Z,5
2018-06-02T06:44:37.725Z,5
2018-06-02T06:46:39.093Z,5
2018-06-02T06:48:40.517Z,5
2018-06-02T06:50:42.008Z,5
2018-06-02T06:52:43.503Z,5
2018-06-02T06:54:45.476Z,5
2018-06-02T06:56:47.262Z,5
2018-06-02T06:58:48.851Z,5
2018-06-02T07:00:50.686Z,10
2018-06-02T07:02:52.160Z,5
2018-06-02T07:04:53.903Z,5
2018-06-02T07:06:55.409Z,5
2018-06-02T07:08:56.939Z,5
2018-06-02T07:10:58.465Z,5
2018-06-02T07:12:59.996Z,10
2018-06-02T07:15:01.678Z,10
2018-06-02T07:17:03.209Z,10
2018-06-02T07:19:04.719Z,10
2018-06-02T07:21:06.260Z,10
2018-06-02T07:23:07.819Z,10
2018-06-02T07:25:09.322Z,10
2018-06-02T07:27:10.960Z,10
2018-06-02T07:29:12.456Z,10
2018-06-02T07:31:14.036Z,10
2018-06-02T07:33:15.554Z,10
2018-06-02T07:35:17.289Z,15
2018-06-02T07:37:19.118Z,15
2018-06-02T07:39:20.677Z,15
2018-06-02T07:41:22.457Z,10
2018-06-02T07:43:24.246Z,10
2018-06-02T07:46:05.209Z,10
2018-06-02T07:48:06.625Z,15
2018-06-02T07:50:08.195Z,15
2018-06-02T07:52:09.569Z,15
2018-06-02T07:54:11.020Z,15
2018-06-02T07:56:12.776Z,15
2018-06-02T07:58:14.256Z,15
2018-06-02T08:00:15.953Z,15
2018-06-02T08:02:17.529Z,20
2018-06-02T08:04:59.944Z,20
2018-06-02T08:07:01.378Z,20
2018-06-02T08:09:02.932Z,20
2018-06-02T08:11:04.338Z,20
2018-06-02T08:13:05.813Z,20
2018-06-02T08:15:07.388Z,30
2018-06-02T08:17:08.903Z,30
2018-06-02T08:19:10.335Z,30
2018-06-02T08:21:11.765Z,30
2018-06-02T08:23:13.206Z,25
2018-06-02T08:25:55.818Z,25
2018-06-02T08:27:57.557Z,30
2018-06-02T08:29:58.986Z,25
2018-06-02T08:32:00.723Z,25
2018-06-02T08:34:02.142Z,30
2018-06-02T08:36:03.565Z,35
2018-06-02T08:38:05.012Z,40
2018-06-02T08:40:06.532Z,45
2018-06-02T08:42:08.308Z,35
2018-06-02T08:44:50.897Z,25
2018-06-02T08:46:52.327Z,25
2018-06-02T08:48:53.810Z,20
2018-06-02T08:50:55.228Z,20
2018-06-02T08:52:56.656Z,20
2018-06-02T08:55:39.256Z,20
2018-06-02T08:57:40.672Z,20
2018-06-02T08:59:42.094Z,20
2018-06-02T09:01:43.864Z,20
2018-06-02T09:03:45.288Z,20
2018-06-02T09:05:46.718Z,25
2018-06-02T09:07:48.466Z,20
2018-06-02T09:09:50.071Z,20
2018-06-02T09:11:51.565Z,20
2018-06-02T09:13:53.265Z,20
2018-06-02T09:15:55.015Z,25
2018-06-02T09:17:56.538Z,25
2018-06-02T09:19:58.045Z,20
2018-06-02T09:21:59.585Z,25
2018-06-02T09:24:01.358Z,25
2018-06-02T09:26:02.872Z,20
2018-06-02T09:28:04.411Z,20
2018-06-02T09:30:05.912Z,15
2018-06-02T09:32:07.469Z,20
2018-06-02T09:34:08.968Z,20
2018-06-02T09:36:10.703Z,25
2018-06-02T09:38:12.428Z,30
2018-06-02T09:40:13.915Z,30
2018-06-02T09:42:15.431Z,30
2018-06-02T09:44:16.954Z,30
2018-06-02T09:46:18.483Z,30
2018-06-02T09:48:20.037Z,25
2018-06-02T09:50:21.601Z,25
2018-06-02T09:52:23.029Z,20
2018-06-02T09:54:24.631Z,20
2018-06-02T09:56:26.389Z,20
2018-06-02T09:58:28.207Z,20
2018-06-02T10:00:29.664Z,20
2018-06-02T10:02:31.202Z,20
2018-06-02T10:04:32.718Z,20
2018-06-02T10:06:34.241Z,25
2018-06-02T10:08:36.023Z,35
2018-06-02T10:10:37.865Z,30
2018-06-02T10:12:39.535Z,35
2018-06-02T10:15:21.966Z,40
2018-06-02T10:17:23.410Z,40
2018-06-02T10:19:24.837Z,45
2018-06-02T10:21:26.266Z,50
2018-06-02T10:23:27.707Z,50
2018-06-02T10:26:10.239Z,45
2018-06-02T10:28:11.862Z,45
2018-06-02T10:30:13.773Z,45
2018-06-02T10:32:15.212Z,45
2018-06-02T10:34:16.758Z,50
2018-06-02T10:36:59.588Z,40
2018-06-02T10:39:01.050Z,35
2018-06-02T10:41:02.480Z,40
2018-06-02T10:43:03.937Z,30
2018-06-02T10:45:46.541Z,20
2018-06-02T10:47:47.974Z,15
2018-06-02T10:49:49.427Z,20
2018-06-02T10:51:50.876Z,35
2018-06-02T10:54:33.422Z,55
2018-06-02T10:56:34.834Z,65
2018-06-02T10:58:36.401Z,70
2018-06-02T11:00:37.832Z,80
2018-06-02T11:02:39.406Z,90
2018-06-02T11:04:40.864Z,85
2018-06-02T11:06:42.302Z,75
2018-06-02T11:08:43.728Z,75
2018-06-02T11:10:45.163Z,70
2018-06-02T11:12:46.617Z,70
2018-06-02T11:14:48.052Z,70
2018-06-02T11:16:49.601Z,80
2018-06-02T11:18:51.065Z,85
2018-06-02T11:20:52.597Z,85
2018-06-02T11:22:54.032Z,85
2018-06-02T11:24:55.611Z,90
2018-06-02T11:26:57.340Z,85
2018-06-02T11:28:58.776Z,80
2018-06-02T11:31:00.428Z,85
2018-06-02T11:33:01.887Z,90
2018-06-02T11:35:03.485Z,85
2018-06-02T11:37:05.047Z,85
2018-06-02T11:39:06.580Z,75
2018-06-02T11:41:08.250Z,80
2018-06-02T11:43:09.792Z,85
2018-06-02T11:45:11.369Z,80
2018-06-02T11:47:12.875Z,75
2018-06-02T11:49:14.400Z,75
2018-06-02T11:51:15.940Z,65
2018-06-02T11:53:17.687Z,60
2018-06-02T11:55:19.425Z,55
2018-06-02T11:57:20.890Z,55
2018-06-02T11:59:22.380Z,55
2018-06-02T12:01:23.979Z,55
2018-06-02T12:03:25.500Z,40
2018-06-02T12:05:26.996Z,35
2018-06-02T12:07:28.468Z,25
2018-06-02T12:09:30.342Z,25
2018-06-02T12:11:31.818Z,20
2018-06-02T12:13:33.490Z,25
2018-06-02T12:15:35.299Z,30
2018-06-02T12:17:36.815Z,35
2018-06-02T12:19:38.353Z,30
2018-06-02T12:21:40.012Z,30
2018-06-02T12:23:41.583Z,20
2018-06-02T12:25:43.168Z,20
2018-06-02T12:27:45.019Z,20
2018-06-02T12:29:46.514Z,20
2018-06-02T12:31:48.048Z,20
2018-06-02T12:33:49.594Z,25
2018-06-02T12:36:32.155Z,20
2018-06-02T12:38:33.584Z,30
2018-06-02T12:40:35.013Z,35
2018-06-02T12:42:36.440Z,35
2018-06-02T12:45:17.880Z,25
2018-06-02T12:47:19.391Z,20
2018-06-02T12:49:20.804Z,20
2018-06-02T12:51:22.267Z,25
2018-06-02T12:53:23.725Z,25
2018-06-02T12:55:25.123Z,20
2018-06-02T12:57:26.553Z,20
2018-06-02T12:59:28.036Z,15
2018-06-02T13:01:29.468Z,15
2018-06-02T13:03:30.902Z,15
2018-06-02T13:06:13.489Z,20
2018-06-02T13:08:14.887Z,25
2018-06-02T13:10:16.585Z,35
2018-06-02T13:12:18.065Z,50
2018-06-02T13:15:00.584Z,70
2018-06-02T13:17:02.168Z,75
2018-06-02T13:19:03.589Z,90
2018-06-02T13:21:05.379Z,105
2018-06-02T13:23:06.806Z,55
2018-06-02T13:25:08.492Z,55
2018-06-02T13:27:09.915Z,45
2018-06-02T13:29:11.732Z,40
2018-06-02T13:31:13.176Z,45
2018-06-02T13:33:14.600Z,45
2018-06-02T13:35:16.036Z,45
2018-06-02T13:37:17.505Z,45
2018-06-02T13:39:18.881Z,45
2018-06-02T13:41:20.368Z,50
2018-06-02T13:43:21.821Z,45
2018-06-02T13:45:23.278Z,45
2018-06-02T13:47:24.697Z,45
2018-06-02T13:49:26.137Z,45
2018-06-02T13:51:27.575Z,45
2018-06-02T13:53:29.007Z,50
2018-06-02T13:55:30.700Z,50
2018-06-02T13:57:32.169Z,45
2018-06-02T13:59:33.711Z,45
2018-06-02T14:01:35.132Z,45
2018-06-02T14:03:36.648Z,50
2018-06-02T14:05:38.362Z,45
2018-06-02T14:07:39.895Z,35
2018-06-02T14:09:41.312Z,25
2018-06-02T14:11:42.842Z,20
2018-06-02T14:13:44.274Z,20
2018-06-02T14:15:45.705Z,25
2018-06-02T14:17:47.123Z,25
2018-06-02T14:19:48.582Z,25
2018-06-02T14:21:50.029Z,25
2018-06-02T14:23:51.544Z,25
2018-06-02T14:25:53.078Z,20
2018-06-02T14:27:54.637Z,20
2018-06-02T14:29:56.267Z,20
2018-06-02T14:31:57.875Z,20
2018-06-02T14:33:59.353Z,20
2018-06-02T14:36:00.820Z,20
2018-06-02T14:38:02.557Z,20
2018-06-02T14:40:04.405Z,20
2018-06-02T14:42:05.957Z,25
2018-06-02T14:44:07.494Z,30
2018-06-02T14:46:50.148Z,35
2018-06-02T14:48:51.568Z,35
2018-06-02T14:50:53.002Z,35
2018-06-02T14:52:54.427Z,35
2018-06-02T14:55:36.852Z,35
2018-06-02T14:57:38.282Z,35
2018-06-02T14:59:39.715Z,35
2018-06-02T15:01:41.149Z,35
2018-06-02T15:03:42.600Z,40
2018-06-02T15:06:25.029Z,50
2018-06-02T15:08:26.528Z,50
2018-06-02T15:10:27.948Z,55
2018-06-02T15:12:29.378Z,50
2018-06-02T15:14:30.899Z,60
2018-06-02T15:16:32.714Z,60
2018-06-02T15:18:34.525Z,80
2018-06-02T15:20:36.013Z,80
2018-06-02T15:22:37.555Z,80
2018-06-02T15:25:20.227Z,55
2018-06-02T15:27:21.662Z,70
2018-06-02T15:29:23.093Z,70
2018-06-02T15:31:24.580Z,70
2018-06-02T15:33:25.957Z,40
2018-06-02T15:36:08.663Z,40
2018-06-02T15:38:10.071Z,65
2018-06-02T15:40:11.505Z,55
2018-06-02T15:42:12.965Z,60
2018-06-02T15:44:14.366Z,55
2018-06-02T15:46:15.796Z,55
2018-06-02T15:48:17.291Z,55
2018-06-02T15:50:18.746Z,40
2018-06-02T15:52:20.200Z,55
2018-06-02T15:54:21.635Z,55
2018-06-02T15:56:23.076Z,35
2018-06-02T15:58:24.498Z,55
2018-06-02T16:00:25.928Z,40
2018-06-02T16:02:27.566Z,45
2018-06-02T16:04:29.144Z,35
2018-06-02T16:06:30.587Z,45
2018-06-02T16:08:32.027Z,35
2018-06-02T16:10:33.814Z,40
2018-06-02T16:12:35.327Z,45
2018-06-02T16:14:36.849Z,50
2018-06-02T16:16:38.331Z,50
2018-06-02T16:18:39.858Z,45
2018-06-02T16:20:41.418Z,40
2018-06-02T16:22:43.295Z,30
2018-06-02T16:24:44.776Z,30
2018-06-02T16:26:46.318Z,35
2018-06-02T16:28:47.927Z,50
2018-06-02T16:30:49.461Z,50
2018-06-02T16:32:50.986Z,45
2018-06-02T16:34:52.514Z,45
2018-06-02T16:36:54.002Z,45
2018-06-02T16:39:36.600Z,30
2018-06-02T16:41:38.128Z,30
2018-06-02T16:43:39.702Z,30
2018-06-02T16:45:41.111Z,30
2018-06-02T16:47:42.549Z,35
2018-06-02T16:49:43.972Z,25
2018-06-02T16:51:45.411Z,35
2018-06-02T16:53:47.020Z,40
2018-06-02T16:55:48.800Z,25
2018-06-02T16:57:50.405Z,25
2018-06-02T16:59:51.841Z,25
2018-06-02T17:01:53.554Z,30
2018-06-02T17:03:55.092Z,25
2018-06-02T17:05:56.616Z,25
2018-06-02T17:07:58.471Z,25
2018-06-02T17:10:00.197Z,25
2018-06-02T17:12:02.013Z,30
2018-06-02T17:14:03.510Z,30
2018-06-02T17:16:05.028Z,40
2018-06-02T17:18:06.818Z,30
2018-06-02T17:20:08.377Z,40
2018-06-02T17:22:09.919Z,35
2018-06-02T17:24:11.709Z,35
2018-06-02T17:26:13.229Z,35
2018-06-02T17:28:14.771Z,30
2018-06-02T17:30:16.286Z,30
2018-06-02T17:32:17.862Z,30
2018-06-02T17:35:00.445Z,30
2018-06-02T17:37:02.175Z,30
2018-06-02T17:39:03.600Z,30
2018-06-02T17:41:05.203Z,25
2018-06-02T17:43:06.637Z,25
2018-06-02T17:45:08.325Z,25
2018-06-02T17:47:09.781Z,20
2018-06-02T17:49:11.370Z,20
2018-06-02T17:51:12.809Z,20
2018-06-02T17:53:14.234Z,20
2018-06-02T17:55:56.947Z,15
2018-06-02T17:57:58.330Z,10
2018-06-02T17:59:59.839Z,10
2018-06-02T18:02:01.354Z,10
2018-06-02T18:04:02.798Z,10
2018-06-02T18:06:45.373Z,10
2018-06-02T18:08:46.807Z,10
2018-06-02T18:10:48.242Z,10
2018-06-02T18:12:49.761Z,10
2018-06-02T18:15:32.188Z,10
2018-06-02T18:17:33.618Z,10
2018-06-02T18:19:35.054Z,5
2018-06-02T18:21:36.524Z,5
2018-06-02T18:23:37.940Z,5
2018-06-02T18:25:39.380Z,5
2018-06-02T18:27:40.802Z,5
2018-06-02T18:29:42.229Z,5
2018-06-02T18:31:43.765Z,5
2018-06-02T18:33:45.388Z,5
2018-06-02T18:36:28.030Z,5
2018-06-02T18:38:29.463Z,5
2018-06-02T18:40:31.088Z,5
2018-06-02T18:42:32.503Z,5
2018-06-02T18:45:15.177Z,5
2018-06-02T18:47:16.601Z,5
2018-06-02T18:49:18.023Z,5
2018-06-02T18:51:19.831Z,5
2018-06-02T18:53:21.260Z,5
2018-06-02T18:55:22.676Z,5
2018-06-02T18:57:24.343Z,5
2018-06-02T18:59:26.186Z,5
2018-06-02T19:01:27.602Z,5
2018-06-02T19:03:29.039Z,5
2018-06-02T19:05:30.471Z,0
2018-06-02T19:07:31.973Z,0
2018-06-02T19:09:33.393Z,0
2018-06-02T19:11:34.862Z,0
2018-06-02T19:13:36.369Z,0
2018-06-02T19:15:37.923Z,0
2018-06-02T19:17:39.439Z,0
2018-06-02T19:19:40.952Z,0
2018-06-02T19:21:42.383Z,0
2018-06-02T19:23:43.886Z,0
2018-06-02T19:25:45.402Z,0
2018-06-02T19:27:46.950Z,0
2018-06-02T19:29:48.458Z,0
2018-06-02T19:31:50.119Z,0
2018-06-02T19:33:51.892Z,0
2018-06-02T19:35:53.407Z,0
2018-06-02T19:37:54.934Z,0
2018-06-02T19:39:56.443Z,0
2018-06-02T19:41:57.956Z,0
2018-06-02T19:43:59.453Z,0
2018-06-02T19:46:00.937Z,0
2018-06-02T19:48:02.467Z,0
2018-06-02T19:50:03.982Z,0
2018-06-02T19:52:05.826Z,0
2018-06-02T19:54:07.345Z,0
2018-06-02T19:56:08.849Z,0
2018-06-02T19:58:10.688Z,0
2018-06-02T20:00:12.199Z,0
2018-06-02T20:02:14.041Z,0
2018-06-02T20:04:15.489Z,0
2018-06-02T20:06:16.961Z,0
2018-06-02T20:08:18.760Z,0
2018-06-02T20:10:20.401Z,0
2018-06-02T20:12:21.945Z,0
2018-06-02T20:14:23.549Z,0
2018-06-02T20:16:25.065Z,0
2018-06-02T20:18:26.613Z,0
2018-06-02T20:20:28.127Z,0
2018-06-02T20:22:29.645Z,0
2018-06-02T20:25:12.273Z,0
2018-06-02T20:27:13.953Z,0
2018-06-02T20:29:15.575Z,0
2018-06-02T20:31:17.242Z,0
2018-06-02T20:33:18.673Z,0
2018-06-02T20:36:01.274Z,0
2018-06-02T20:38:03.037Z,0
2018-06-02T20:40:04.522Z,0
2018-06-02T20:42:05.947Z,0
2018-06-02T20:44:07.384Z,0
2018-06-02T20:46:49.998Z,0
2018-06-02T20:48:51.420Z,0
2018-06-02T20:50:52.854Z,0
2018-06-02T20:52:54.272Z,0
2018-06-02T20:54:55.847Z,0
2018-06-02T20:56:57.315Z,0
2018-06-02T20:58:58.761Z,0
2018-06-02T21:01:00.186Z,0
2018-06-02T21:03:01.611Z,0
2018-06-02T21:05:44.083Z,0
2018-06-02T21:07:45.539Z,0
2018-06-02T21:09:47.052Z,0
2018-06-02T21:11:48.449Z,0
2018-06-02T21:13:50.081Z,0
2018-06-02T21:16:32.639Z,0
2018-06-02T21:18:34.065Z,0
2018-06-02T21:20:35.492Z,0
2018-06-02T21:22:37.007Z,0
2018-06-02T21:25:19.538Z,0
2018-06-02T21:27:20.934Z,0
2018-06-02T21:29:22.368Z,0
2018-06-02T21:31:23.968Z,0
2018-06-02T21:33:25.525Z,0
2018-06-02T21:36:07.944Z,0
2018-06-02T21:38:09.372Z,0
2018-06-02T21:40:10.791Z,0
2018-06-02T21:42:12.220Z,0
2018-06-02T21:44:13.648Z,0
2018-06-02T21:46:15.233Z,0
2018-06-02T21:48:16.902Z,0
2018-06-02T21:50:18.443Z,0
2018-06-02T21:52:20.896Z,0
2018-06-02T21:54:22.367Z,0
2018-06-02T21:56:23.860Z,0
2018-06-02T21:58:25.720Z,0
2018-06-02T22:00:27.209Z,0
2018-06-02T22:02:28.651Z,0
2018-06-02T22:04:30.080Z,0
2018-06-02T22:06:31.537Z,0
2018-06-02T22:08:32.993Z,0
2018-06-02T22:10:34.486Z,0
2018-06-02T22:12:35.953Z,0
2018-06-02T22:14:37.659Z,0
2018-06-02T22:16:39.182Z,0
2018-06-02T22:18:40.988Z,0
2018-06-02T22:20:42.792Z,0
2018-06-02T22:22:44.274Z,0
2018-06-02T22:24:45.790Z,0
2018-06-02T22:26:47.344Z,0
2018-06-02T22:28:48.788Z,0
2018-06-02T22:30:51.307Z,0
2018-06-02T22:32:52.831Z,0
2018-06-02T22:34:54.335Z,0
2018-06-02T22:36:55.848Z,0
2018-06-02T22:39:38.448Z,0
2018-06-02T22:41:39.870Z,0
2018-06-02T22:43:41.294Z,0
2018-06-02T22:45:42.813Z,0
2018-06-02T22:47:44.240Z,0
2018-06-02T22:49:45.704Z,0
2018-06-02T22:51:47.138Z,0
2018-06-02T22:53:48.579Z,0
2018-06-02T22:55:50.114Z,0
2018-06-02T22:57:51.539Z,0
2018-06-02T22:59:52.967Z,0
2018-06-02T23:01:54.411Z,0
2018-06-02T23:03:55.842Z,0
2018-06-02T23:05:57.264Z,0
2018-06-02T23:07:58.772Z,0
2018-06-02T23:10:00.178Z,0
2018-06-02T23:12:01.633Z,0
2018-06-02T23:14:03.082Z,0
2018-06-02T23:16:45.673Z,0
2018-06-02T23:18:47.095Z,0
2018-06-02T23:20:48.725Z,0
2018-06-02T23:22:50.200Z,0
2018-06-02T23:25:32.175Z,0
2018-06-02T23:27:33.546Z,0
2018-06-02T23:29:34.968Z,0
2018-06-02T23:31:36.535Z,0
2018-06-02T23:33:38.182Z,0
2018-06-02T23:36:20.627Z,0
2018-06-02T23:38:22.077Z,0
2018-06-02T23:40:23.507Z,0
2018-06-02T23:42:24.940Z,0
2018-06-02T23:45:07.361Z,0
2018-06-02T23:47:08.800Z,0
2018-06-02T23:49:10.217Z,0
2018-06-02T23:51:11.674Z,0
2018-06-02T23:53:13.128Z,0
2018-06-02T23:55:55.555Z,0
2018-06-02T23:57:56.981Z,0
2018-06-02T23:59:58.408Z,0
